sensor_id;sensor_type;location;lat;lon;timestamp;pressure;altitude;pressure_sealevel;temperature;humidity
77737;BME280;66903;59.926;30.404;2024-03-17T00:00:10;100487.16;;;9.37;62.02
77737;BME280;66903;59.926;30.404;2024-03-17T00:05:25;100492.50;;;9.39;62.55
77737;BME280;66903;59.926;30.404;2024-03-17T00:10:36;100471.69;;;9.22;62.42
77737;BME280;66903;59.926;30.404;2024-03-17T00:15:48;100483.09;;;9.27;63.18
77737;BME280;66903;59.926;30.404;2024-03-17T00:20:59;100500.00;;;9.25;63.07
77737;BME280;66903;59.926;30.404;2024-03-17T00:26:10;100478.13;;;9.29;62.70
77737;BME280;66903;59.926;30.404;2024-03-17T00:31:21;100484.38;;;9.37;62.55
77737;BME280;66903;59.926;30.404;2024-03-17T00:36:34;100457.13;;;9.39;62.20
77737;BME280;66903;59.926;30.404;2024-03-17T00:41:45;100448.31;;;9.36;62.67
77737;BME280;66903;59.926;30.404;2024-03-17T00:46:56;100467.41;;;9.45;62.59
77737;BME280;66903;59.926;30.404;2024-03-17T00:52:07;100464.38;;;9.53;62.57
77737;BME280;66903;59.926;30.404;2024-03-17T00:57:18;100465.44;;;9.72;62.31
77737;BME280;66903;59.926;30.404;2024-03-17T01:02:29;100442.31;;;9.65;62.28
77737;BME280;66903;59.926;30.404;2024-03-17T01:07:40;100446.97;;;9.84;61.85
77737;BME280;66903;59.926;30.404;2024-03-17T01:12:51;100446.09;;;9.90;62.09
77737;BME280;66903;59.926;30.404;2024-03-17T01:18:06;100446.94;;;9.97;62.17
77737;BME280;66903;59.926;30.404;2024-03-17T01:23:17;100441.13;;;9.92;62.29
77737;BME280;66903;59.926;30.404;2024-03-17T01:28:29;100420.56;;;9.93;62.23
77737;BME280;66903;59.926;30.404;2024-03-17T01:33:40;100402.31;;;9.90;62.55
77737;BME280;66903;59.926;30.404;2024-03-17T01:38:51;100426.09;;;9.99;62.30
77737;BME280;66903;59.926;30.404;2024-03-17T01:44:02;100432.09;;;10.10;61.90
77737;BME280;66903;59.926;30.404;2024-03-17T01:49:13;100410.47;;;9.98;62.06
77737;BME280;66903;59.926;30.404;2024-03-17T01:54:24;100395.94;;;9.77;62.30
77737;BME280;66903;59.926;30.404;2024-03-17T01:59:35;100378.59;;;9.68;62.51
77737;BME280;66903;59.926;30.404;2024-03-17T02:04:46;100410.50;;;9.85;62.39
77737;BME280;66903;59.926;30.404;2024-03-17T02:09:58;100406.19;;;9.89;62.58
77737;BME280;66903;59.926;30.404;2024-03-17T02:15:09;100374.88;;;9.87;62.31
77737;BME280;66903;59.926;30.404;2024-03-17T02:20:21;100412.59;;;9.96;62.41
77737;BME280;66903;59.926;30.404;2024-03-17T02:25:35;100401.47;;;9.90;62.40
77737;BME280;66903;59.926;30.404;2024-03-17T02:30:46;100385.56;;;9.90;62.46
77737;BME280;66903;59.926;30.404;2024-03-17T02:35:57;100401.00;;;9.99;62.33
77737;BME280;66903;59.926;30.404;2024-03-17T02:41:10;100380.63;;;9.92;62.21
77737;BME280;66903;59.926;30.404;2024-03-17T02:46:21;100407.41;;;10.13;62.39
77737;BME280;66903;59.926;30.404;2024-03-17T02:51:33;100345.25;;;9.93;62.20
77737;BME280;66903;59.926;30.404;2024-03-17T02:56:44;100375.41;;;10.16;62.13
77737;BME280;66903;59.926;30.404;2024-03-17T03:01:55;100363.63;;;10.14;62.05
77737;BME280;66903;59.926;30.404;2024-03-17T03:07:06;100355.25;;;10.14;62.15
77737;BME280;66903;59.926;30.404;2024-03-17T03:12:17;100349.69;;;10.07;62.24
77737;BME280;66903;59.926;30.404;2024-03-17T03:17:28;100386.31;;;10.24;61.88
77737;BME280;66903;59.926;30.404;2024-03-17T03:22:39;100359.78;;;10.15;61.76
77737;BME280;66903;59.926;30.404;2024-03-17T03:27:50;100381.81;;;10.23;61.67
77737;BME280;66903;59.926;30.404;2024-03-17T03:33:01;100371.53;;;10.23;61.90
77737;BME280;66903;59.926;30.404;2024-03-17T03:38:15;100347.53;;;10.02;62.09
77737;BME280;66903;59.926;30.404;2024-03-17T03:43:26;100352.28;;;9.95;62.17
77737;BME280;66903;59.926;30.404;2024-03-17T03:48:38;100362.00;;;9.86;62.07
77737;BME280;66903;59.926;30.404;2024-03-17T03:53:50;100364.38;;;9.83;62.38
77737;BME280;66903;59.926;30.404;2024-03-17T03:59:01;100355.84;;;9.71;62.69
77737;BME280;66903;59.926;30.404;2024-03-17T04:04:12;100364.03;;;9.60;62.32
77737;BME280;66903;59.926;30.404;2024-03-17T04:09:23;100343.94;;;9.38;62.70
77737;BME280;66903;59.926;30.404;2024-03-17T04:14:34;100360.22;;;9.35;63.05
77737;BME280;66903;59.926;30.404;2024-03-17T04:19:45;100357.66;;;9.40;62.96
77737;BME280;66903;59.926;30.404;2024-03-17T04:24:56;100327.03;;;9.27;62.89
77737;BME280;66903;59.926;30.404;2024-03-17T04:30:08;100360.22;;;9.41;62.82
77737;BME280;66903;59.926;30.404;2024-03-17T04:35:19;100327.47;;;9.30;63.00
77737;BME280;66903;59.926;30.404;2024-03-17T04:40:30;100367.28;;;9.50;62.76
77737;BME280;66903;59.926;30.404;2024-03-17T04:45:41;100345.66;;;9.33;62.80
77737;BME280;66903;59.926;30.404;2024-03-17T04:50:52;100377.38;;;9.38;62.80
77737;BME280;66903;59.926;30.404;2024-03-17T04:56:04;100376.31;;;9.33;63.02
77737;BME280;66903;59.926;30.404;2024-03-17T05:01:16;100385.09;;;9.36;62.95
77737;BME280;66903;59.926;30.404;2024-03-17T05:06:27;100384.25;;;9.29;63.27
77737;BME280;66903;59.926;30.404;2024-03-17T05:11:38;100371.81;;;9.25;63.68
77737;BME280;66903;59.926;30.404;2024-03-17T05:16:52;100378.69;;;9.23;63.79
77737;BME280;66903;59.926;30.404;2024-03-17T05:22:03;100381.03;;;9.26;63.38
77737;BME280;66903;59.926;30.404;2024-03-17T05:27:14;100370.75;;;9.26;63.55
77737;BME280;66903;59.926;30.404;2024-03-17T05:32:25;100379.53;;;9.17;63.81
77737;BME280;66903;59.926;30.404;2024-03-17T05:37:37;100387.06;;;9.10;64.13
77737;BME280;66903;59.926;30.404;2024-03-17T05:42:48;100411.72;;;9.13;64.37
77737;BME280;66903;59.926;30.404;2024-03-17T05:47:59;100368.19;;;8.92;64.03
77737;BME280;66903;59.926;30.404;2024-03-17T05:53:10;100375.28;;;9.01;63.96
77737;BME280;66903;59.926;30.404;2024-03-17T05:58:21;100372.91;;;9.05;64.01
77737;BME280;66903;59.926;30.404;2024-03-17T06:03:34;100418.13;;;9.26;63.99
77737;BME280;66903;59.926;30.404;2024-03-17T06:08:46;100409.75;;;9.13;64.27
77737;BME280;66903;59.926;30.404;2024-03-17T06:13:57;100399.28;;;9.09;64.03
77737;BME280;66903;59.926;30.404;2024-03-17T06:19:10;100432.91;;;9.14;64.00
77737;BME280;66903;59.926;30.404;2024-03-17T06:24:21;100432.28;;;9.05;64.35
77737;BME280;66903;59.926;30.404;2024-03-17T06:29:32;100434.63;;;9.02;64.53
77737;BME280;66903;59.926;30.404;2024-03-17T06:34:43;100426.47;;;8.87;64.80
77737;BME280;66903;59.926;30.404;2024-03-17T06:39:54;100408.47;;;8.76;65.47
77737;BME280;66903;59.926;30.404;2024-03-17T06:45:06;100431.19;;;8.86;64.97
77737;BME280;66903;59.926;30.404;2024-03-17T06:50:19;100447.88;;;8.80;66.16
77737;BME280;66903;59.926;30.404;2024-03-17T06:55:30;100425.78;;;8.52;66.92
77737;BME280;66903;59.926;30.404;2024-03-17T07:00:41;100429.84;;;8.50;67.48
77737;BME280;66903;59.926;30.404;2024-03-17T07:06:03;100460.94;;;8.66;67.28
77737;BME280;66903;59.926;30.404;2024-03-17T07:11:15;100471.47;;;8.77;67.36
77737;BME280;66903;59.926;30.404;2024-03-17T07:16:27;100461.59;;;8.68;66.82
77737;BME280;66903;59.926;30.404;2024-03-17T07:21:38;100458.38;;;8.71;67.77
77737;BME280;66903;59.926;30.404;2024-03-17T07:26:50;100459.88;;;8.74;67.83
77737;BME280;66903;59.926;30.404;2024-03-17T07:32:01;100490.75;;;8.92;67.24
77737;BME280;66903;59.926;30.404;2024-03-17T07:37:12;100493.34;;;9.00;67.26
77737;BME280;66903;59.926;30.404;2024-03-17T07:42:23;100481.16;;;9.14;66.96
77737;BME280;66903;59.926;30.404;2024-03-17T07:47:34;100490.34;;;9.28;66.55
77737;BME280;66903;59.926;30.404;2024-03-17T07:52:48;100489.06;;;9.43;66.06
77737;BME280;66903;59.926;30.404;2024-03-17T07:57:59;100501.28;;;9.68;65.81
77737;BME280;66903;59.926;30.404;2024-03-17T08:03:10;100476.16;;;9.75;65.48
77737;BME280;66903;59.926;30.404;2024-03-17T08:08:21;100520.56;;;10.09;65.43
77737;BME280;66903;59.926;30.404;2024-03-17T08:13:33;100522.00;;;10.25;65.02
77737;BME280;66903;59.926;30.404;2024-03-17T08:18:47;100522.59;;;10.40;64.75
77737;BME280;66903;59.926;30.404;2024-03-17T08:23:58;100538.19;;;10.54;64.38
77737;BME280;66903;59.926;30.404;2024-03-17T08:29:09;100545.03;;;10.64;64.53
77737;BME280;66903;59.926;30.404;2024-03-17T08:34:20;100554.66;;;10.75;63.70
77737;BME280;66903;59.926;30.404;2024-03-17T08:39:32;100547.56;;;10.79;63.44
77737;BME280;66903;59.926;30.404;2024-03-17T08:44:46;100562.50;;;10.47;61.92
77737;BME280;66903;59.926;30.404;2024-03-17T08:49:57;100612.59;;;10.35;62.32
77737;BME280;66903;59.926;30.404;2024-03-17T08:55:09;100598.44;;;9.58;61.33
77737;BME280;66903;59.926;30.404;2024-03-17T09:00:24;100624.09;;;9.21;61.72
77737;BME280;66903;59.926;30.404;2024-03-17T09:05:36;100621.16;;;8.75;62.17
77737;BME280;66903;59.926;30.404;2024-03-17T09:10:49;100655.72;;;8.53;62.18
77737;BME280;66903;59.926;30.404;2024-03-17T09:16:00;100651.75;;;8.07;62.58
77737;BME280;66903;59.926;30.404;2024-03-17T09:21:12;100660.50;;;7.83;63.14
77737;BME280;66903;59.926;30.404;2024-03-17T09:26:24;100665.25;;;7.40;63.61
77737;BME280;66903;59.926;30.404;2024-03-17T09:31:35;100644.03;;;7.18;64.27
77737;BME280;66903;59.926;30.404;2024-03-17T09:36:46;100644.25;;;7.17;63.50
77737;BME280;66903;59.926;30.404;2024-03-17T09:41:58;100698.88;;;7.31;63.79
77737;BME280;66903;59.926;30.404;2024-03-17T09:47:18;100704.38;;;7.24;63.75
77737;BME280;66903;59.926;30.404;2024-03-17T09:52:33;100710.41;;;7.28;63.66
77737;BME280;66903;59.926;30.404;2024-03-17T09:57:45;100756.66;;;7.35;63.68
77737;BME280;66903;59.926;30.404;2024-03-17T10:02:57;100753.34;;;7.11;62.97
77737;BME280;66903;59.926;30.404;2024-03-17T10:08:20;100771.91;;;6.96;63.04
77737;BME280;66903;59.926;30.404;2024-03-17T10:13:32;100752.69;;;6.65;63.08
77737;BME280;66903;59.926;30.404;2024-03-17T10:18:43;100763.81;;;6.65;63.33
77737;BME280;66903;59.926;30.404;2024-03-17T10:24:11;100801.13;;;6.77;63.09
77737;BME280;66903;59.926;30.404;2024-03-17T10:29:30;100828.78;;;6.70;63.13
77737;BME280;66903;59.926;30.404;2024-03-17T10:34:41;100820.91;;;6.59;64.21
77737;BME280;66903;59.926;30.404;2024-03-17T10:39:53;100846.84;;;6.66;64.14
77737;BME280;66903;59.926;30.404;2024-03-17T10:45:09;100810.41;;;6.32;64.10
77737;BME280;66903;59.926;30.404;2024-03-17T10:50:23;100846.59;;;6.16;64.27
77737;BME280;66903;59.926;30.404;2024-03-17T10:55:44;100854.84;;;6.47;64.10
77737;BME280;66903;59.926;30.404;2024-03-17T11:00:56;100860.78;;;6.44;63.90
77737;BME280;66903;59.926;30.404;2024-03-17T11:06:08;100867.91;;;6.38;63.30
77737;BME280;66903;59.926;30.404;2024-03-17T11:11:36;100870.59;;;6.46;63.55
77737;BME280;66903;59.926;30.404;2024-03-17T11:16:48;100901.00;;;6.40;63.01
77737;BME280;66903;59.926;30.404;2024-03-17T11:27:50;100925.13;;;5.78;63.12
77737;BME280;66903;59.926;30.404;2024-03-17T11:33:00;100940.88;;;5.86;64.04
77737;BME280;66903;59.926;30.404;2024-03-17T11:38:52;100941.19;;;5.91;63.18
77737;BME280;66903;59.926;30.404;2024-03-17T11:49:39;100931.06;;;5.67;63.01
77737;BME280;66903;59.926;30.404;2024-03-17T11:54:51;100977.31;;;5.67;63.27
77737;BME280;66903;59.926;30.404;2024-03-17T12:00:03;100937.59;;;5.35;63.54
77737;BME280;66903;59.926;30.404;2024-03-17T12:05:15;100955.09;;;5.28;63.68
77737;BME280;66903;59.926;30.404;2024-03-17T12:10:26;100969.28;;;5.25;63.63
77737;BME280;66903;59.926;30.404;2024-03-17T12:15:37;101004.63;;;5.23;63.75
77737;BME280;66903;59.926;30.404;2024-03-17T12:20:48;100981.47;;;5.00;63.57
77737;BME280;66903;59.926;30.404;2024-03-17T12:25:59;100999.44;;;5.04;63.00
77737;BME280;66903;59.926;30.404;2024-03-17T12:31:10;101005.84;;;4.88;63.35
77737;BME280;66903;59.926;30.404;2024-03-17T12:36:21;101047.88;;;5.08;63.51
77737;BME280;66903;59.926;30.404;2024-03-17T12:41:32;101061.19;;;5.04;63.35
77737;BME280;66903;59.926;30.404;2024-03-17T12:46:43;101074.00;;;5.13;63.54
77737;BME280;66903;59.926;30.404;2024-03-17T12:51:55;101096.66;;;5.25;63.75
77737;BME280;66903;59.926;30.404;2024-03-17T12:57:08;101068.28;;;5.23;62.74
77737;BME280;66903;59.926;30.404;2024-03-17T13:02:44;101089.38;;;5.32;62.44
77737;BME280;66903;59.926;30.404;2024-03-17T13:07:56;101117.59;;;5.35;62.32
77737;BME280;66903;59.926;30.404;2024-03-17T13:13:09;101095.63;;;5.10;62.10
77737;BME280;66903;59.926;30.404;2024-03-17T13:18:21;101112.41;;;5.00;62.01
77737;BME280;66903;59.926;30.404;2024-03-17T13:23:32;101137.31;;;5.00;61.87
77737;BME280;66903;59.926;30.404;2024-03-17T13:28:43;101135.03;;;4.88;62.18
77737;BME280;66903;59.926;30.404;2024-03-17T13:33:54;101121.88;;;4.82;62.70
77737;BME280;66903;59.926;30.404;2024-03-17T13:39:05;101158.56;;;4.92;61.86
77737;BME280;66903;59.926;30.404;2024-03-17T13:44:20;101140.88;;;4.69;61.57
77737;BME280;66903;59.926;30.404;2024-03-17T13:49:31;101168.50;;;4.61;62.02
77737;BME280;66903;59.926;30.404;2024-03-17T13:54:44;101170.13;;;4.37;62.19
77737;BME280;66903;59.926;30.404;2024-03-17T13:59:55;101182.34;;;4.27;61.60
77737;BME280;66903;59.926;30.404;2024-03-17T14:05:12;101227.78;;;4.24;62.76
77737;BME280;66903;59.926;30.404;2024-03-17T14:10:25;101245.38;;;4.23;62.24
77737;BME280;66903;59.926;30.404;2024-03-17T14:15:36;101244.69;;;4.21;62.05
77737;BME280;66903;59.926;30.404;2024-03-17T14:20:47;101206.03;;;4.04;62.21
77737;BME280;66903;59.926;30.404;2024-03-17T14:25:58;101246.09;;;4.25;61.75
77737;BME280;66903;59.926;30.404;2024-03-17T14:31:09;101279.47;;;4.32;61.54
77737;BME280;66903;59.926;30.404;2024-03-17T14:36:20;101218.72;;;3.89;61.78
77737;BME280;66903;59.926;30.404;2024-03-17T14:41:37;101254.22;;;4.01;61.76
77737;BME280;66903;59.926;30.404;2024-03-17T14:46:48;101302.47;;;4.07;61.68
77737;BME280;66903;59.926;30.404;2024-03-17T14:52:02;101296.16;;;3.97;61.17
77737;BME280;66903;59.926;30.404;2024-03-17T14:57:13;101270.38;;;3.71;62.01
77737;BME280;66903;59.926;30.404;2024-03-17T15:02:26;101287.06;;;3.61;62.34
77737;BME280;66903;59.926;30.404;2024-03-17T15:07:37;101314.28;;;3.74;62.48
77737;BME280;66903;59.926;30.404;2024-03-17T15:12:48;101328.84;;;3.49;62.09
77737;BME280;66903;59.926;30.404;2024-03-17T15:17:59;101340.78;;;3.49;62.63
77737;BME280;66903;59.926;30.404;2024-03-17T15:23:10;101302.66;;;3.35;62.56
77737;BME280;66903;59.926;30.404;2024-03-17T15:28:21;101342.50;;;3.50;62.33
77737;BME280;66903;59.926;30.404;2024-03-17T15:33:33;101348.56;;;3.54;62.55
77737;BME280;66903;59.926;30.404;2024-03-17T15:38:47;101359.16;;;3.41;62.41
77737;BME280;66903;59.926;30.404;2024-03-17T15:43:58;101381.91;;;3.42;62.83
77737;BME280;66903;59.926;30.404;2024-03-17T15:49:11;101348.34;;;3.20;62.37
77737;BME280;66903;59.926;30.404;2024-03-17T15:54:22;101403.31;;;3.41;62.43
77737;BME280;66903;59.926;30.404;2024-03-17T15:59:33;101398.94;;;3.11;62.62
77737;BME280;66903;59.926;30.404;2024-03-17T16:04:46;101469.69;;;3.12;63.54
77737;BME280;66903;59.926;30.404;2024-03-17T16:09:59;101458.66;;;3.12;63.34
77737;BME280;66903;59.926;30.404;2024-03-17T16:15:12;101449.66;;;3.00;63.43
77737;BME280;66903;59.926;30.404;2024-03-17T16:25:59;101445.56;;;2.77;63.05
77737;BME280;66903;59.926;30.404;2024-03-17T16:31:12;101455.88;;;2.75;63.55
77737;BME280;66903;59.926;30.404;2024-03-17T16:36:23;101501.66;;;2.95;64.41
77737;BME280;66903;59.926;30.404;2024-03-17T16:41:37;101516.19;;;2.97;63.81
77737;BME280;66903;59.926;30.404;2024-03-17T16:51:59;101544.97;;;2.85;64.08
77737;BME280;66903;59.926;30.404;2024-03-17T16:57:10;101507.97;;;2.59;63.96
77737;BME280;66903;59.926;30.404;2024-03-17T17:02:24;101578.22;;;2.84;63.81
77737;BME280;66903;59.926;30.404;2024-03-17T17:07:35;101542.34;;;2.74;64.07
77737;BME280;66903;59.926;30.404;2024-03-17T17:12:46;101572.41;;;2.96;62.95
77737;BME280;66903;59.926;30.404;2024-03-17T17:17:58;101581.09;;;3.01;63.46
77737;BME280;66903;59.926;30.404;2024-03-17T17:23:08;101597.22;;;2.96;63.00
77737;BME280;66903;59.926;30.404;2024-03-17T17:28:24;101591.44;;;2.80;62.68
77737;BME280;66903;59.926;30.404;2024-03-17T17:33:36;101628.00;;;2.82;62.42
77737;BME280;66903;59.926;30.404;2024-03-17T17:38:48;101604.78;;;2.66;62.89
77737;BME280;66903;59.926;30.404;2024-03-17T17:43:59;101607.69;;;2.64;62.28
77737;BME280;66903;59.926;30.404;2024-03-17T17:49:10;101646.44;;;2.63;62.05
77737;BME280;66903;59.926;30.404;2024-03-17T17:54:21;101672.25;;;2.71;62.16
77737;BME280;66903;59.926;30.404;2024-03-17T17:59:34;101654.25;;;2.67;62.09
77737;BME280;66903;59.926;30.404;2024-03-17T18:04:46;101670.38;;;2.72;62.17
77737;BME280;66903;59.926;30.404;2024-03-17T18:09:57;101637.13;;;2.54;62.19
77737;BME280;66903;59.926;30.404;2024-03-17T18:15:09;101638.84;;;2.55;61.00
77737;BME280;66903;59.926;30.404;2024-03-17T18:20:20;101637.69;;;2.48;61.10
77737;BME280;66903;59.926;30.404;2024-03-17T18:25:31;101656.41;;;2.45;61.10
77737;BME280;66903;59.926;30.404;2024-03-17T18:30:46;101692.28;;;2.64;59.64
77737;BME280;66903;59.926;30.404;2024-03-17T18:35:57;101661.47;;;2.40;60.99
77737;BME280;66903;59.926;30.404;2024-03-17T18:41:09;101691.97;;;2.57;60.21
77737;BME280;66903;59.926;30.404;2024-03-17T18:46:20;101708.66;;;2.65;60.41
77737;BME280;66903;59.926;30.404;2024-03-17T18:51:34;101699.06;;;2.50;59.50
77737;BME280;66903;59.926;30.404;2024-03-17T18:56:45;101736.16;;;2.86;59.16
77737;BME280;66903;59.926;30.404;2024-03-17T19:01:56;101717.00;;;2.84;59.05
77737;BME280;66903;59.926;30.404;2024-03-17T19:07:10;101688.19;;;2.58;58.89
77737;BME280;66903;59.926;30.404;2024-03-17T19:12:21;101719.25;;;2.60;59.89
77737;BME280;66903;59.926;30.404;2024-03-17T19:17:36;101721.59;;;2.74;59.15
77737;BME280;66903;59.926;30.404;2024-03-17T19:22:47;101679.28;;;2.36;59.49
77737;BME280;66903;59.926;30.404;2024-03-17T19:27:58;101731.41;;;2.48;60.28
77737;BME280;66903;59.926;30.404;2024-03-17T19:33:09;101722.69;;;2.43;59.38
77737;BME280;66903;59.926;30.404;2024-03-17T19:38:21;101685.31;;;2.10;60.05
77737;BME280;66903;59.926;30.404;2024-03-17T19:43:36;101752.00;;;2.44;59.69
77737;BME280;66903;59.926;30.404;2024-03-17T19:48:52;101743.78;;;2.14;60.40
77737;BME280;66903;59.926;30.404;2024-03-17T19:54:04;101748.41;;;2.13;59.79
77737;BME280;66903;59.926;30.404;2024-03-17T19:59:16;101768.41;;;2.46;59.37
77737;BME280;66903;59.926;30.404;2024-03-17T20:04:27;101765.53;;;2.57;59.50
77737;BME280;66903;59.926;30.404;2024-03-17T20:09:38;101785.19;;;2.63;58.89
77737;BME280;66903;59.926;30.404;2024-03-17T20:14:51;101780.50;;;2.54;58.33
77737;BME280;66903;59.926;30.404;2024-03-17T20:20:02;101793.53;;;2.52;58.40
77737;BME280;66903;59.926;30.404;2024-03-17T20:25:14;101800.09;;;2.61;58.04
77737;BME280;66903;59.926;30.404;2024-03-17T20:30:25;101778.78;;;2.63;57.71
77737;BME280;66903;59.926;30.404;2024-03-17T20:35:36;101798.16;;;2.52;57.98
77737;BME280;66903;59.926;30.404;2024-03-17T20:40:47;101814.03;;;2.59;58.28
77737;BME280;66903;59.926;30.404;2024-03-17T20:45:58;101829.84;;;2.57;57.85
77737;BME280;66903;59.926;30.404;2024-03-17T20:51:09;101845.78;;;2.54;58.02
77737;BME280;66903;59.926;30.404;2024-03-17T20:56:20;101853.91;;;2.55;58.25
77737;BME280;66903;59.926;30.404;2024-03-17T21:01:31;101839.59;;;2.41;58.27
77737;BME280;66903;59.926;30.404;2024-03-17T21:06:43;101804.69;;;2.20;58.35
77737;BME280;66903;59.926;30.404;2024-03-17T21:11:54;101824.97;;;2.40;57.79
77737;BME280;66903;59.926;30.404;2024-03-17T21:17:07;101839.59;;;2.41;57.92
77737;BME280;66903;59.926;30.404;2024-03-17T21:22:18;101808.09;;;2.03;58.12
77737;BME280;66903;59.926;30.404;2024-03-17T21:27:29;101808.28;;;2.11;58.28
77737;BME280;66903;59.926;30.404;2024-03-17T21:32:41;101825.94;;;2.09;57.25
77737;BME280;66903;59.926;30.404;2024-03-17T21:37:52;101851.56;;;2.20;57.51
77737;BME280;66903;59.926;30.404;2024-03-17T21:43:04;101873.44;;;2.22;57.92
77737;BME280;66903;59.926;30.404;2024-03-17T21:48:15;101866.81;;;2.24;57.97
77737;BME280;66903;59.926;30.404;2024-03-17T21:53:26;101867.41;;;2.28;57.36
77737;BME280;66903;59.926;30.404;2024-03-17T21:58:39;101869.75;;;2.33;57.36
77737;BME280;66903;59.926;30.404;2024-03-17T22:03:50;101887.28;;;2.11;58.20
77737;BME280;66903;59.926;30.404;2024-03-17T22:09:01;101884.16;;;2.15;58.05
77737;BME280;66903;59.926;30.404;2024-03-17T22:14:15;101856.97;;;2.11;57.50
77737;BME280;66903;59.926;30.404;2024-03-17T22:19:26;101891.47;;;2.26;57.77
77737;BME280;66903;59.926;30.404;2024-03-17T22:24:38;101889.84;;;2.23;58.02
77737;BME280;66903;59.926;30.404;2024-03-17T22:29:49;101899.31;;;2.31;57.62
77737;BME280;66903;59.926;30.404;2024-03-17T22:35:00;101891.06;;;2.10;56.61
77737;BME280;66903;59.926;30.404;2024-03-17T22:40:11;101842.66;;;1.76;57.85
77737;BME280;66903;59.926;30.404;2024-03-17T22:45:23;101875.47;;;1.99;57.57
77737;BME280;66903;59.926;30.404;2024-03-17T22:50:35;101915.38;;;2.05;56.84
77737;BME280;66903;59.926;30.404;2024-03-17T22:55:47;101895.72;;;1.78;57.90
77737;BME280;66903;59.926;30.404;2024-03-17T23:01:02;101944.81;;;2.04;58.05
77737;BME280;66903;59.926;30.404;2024-03-17T23:06:15;101925.63;;;2.14;57.38
77737;BME280;66903;59.926;30.404;2024-03-17T23:11:26;101912.22;;;2.09;57.25
77737;BME280;66903;59.926;30.404;2024-03-17T23:16:37;101913.38;;;2.07;56.88
77737;BME280;66903;59.926;30.404;2024-03-17T23:21:48;101935.16;;;2.10;57.22
77737;BME280;66903;59.926;30.404;2024-03-17T23:26:58;101924.66;;;2.04;57.56
77737;BME280;66903;59.926;30.404;2024-03-17T23:32:09;101936.13;;;2.09;56.77
77737;BME280;66903;59.926;30.404;2024-03-17T23:37:21;101928.38;;;2.14;57.20
77737;BME280;66903;59.926;30.404;2024-03-17T23:42:32;101901.47;;;1.86;57.57
77737;BME280;66903;59.926;30.404;2024-03-17T23:47:44;101896.59;;;1.78;57.71
77737;BME280;66903;59.926;30.404;2024-03-17T23:52:56;101953.72;;;1.97;57.58
77737;BME280;66903;59.926;30.404;2024-03-17T23:58:07;101954.19;;;2.02;57.34
